createdAt,value
2022-12-31T00:00:37.191Z,2.93
2022-12-31T00:03:24.367Z,2.97
2022-12-31T00:05:51.903Z,2.95
2022-12-31T00:08:19.204Z,2.95
2022-12-31T00:10:46.624Z,2.97
2022-12-31T00:13:14.153Z,2.95
2022-12-31T00:15:44.961Z,2.97
2022-12-31T00:18:11.968Z,2.95
2022-12-31T00:20:41.870Z,2.96
2022-12-31T00:23:11.903Z,2.94
2022-12-31T00:25:39.229Z,2.93
2022-12-31T00:28:06.524Z,2.98
2022-12-31T00:30:34.679Z,2.96
2022-12-31T00:33:01.919Z,2.94
2022-12-31T00:35:29.665Z,2.99
2022-12-31T00:37:56.739Z,3.00
2022-12-31T00:40:24.150Z,3.01
2022-12-31T00:42:51.135Z,3.00
2022-12-31T00:45:18.700Z,2.98
2022-12-31T00:47:45.718Z,2.98
2022-12-31T00:50:13.533Z,2.97
2022-12-31T00:52:40.524Z,2.97
2022-12-31T00:55:10.584Z,2.99
2022-12-31T00:57:37.545Z,2.98
2022-12-31T01:00:07.646Z,2.92
2022-12-31T01:02:34.830Z,2.86
2022-12-31T01:05:02.397Z,2.87
2022-12-31T01:07:29.439Z,2.81
2022-12-31T01:09:57.079Z,2.77
2022-12-31T01:12:25.193Z,2.77
2022-12-31T01:14:52.554Z,2.77
2022-12-31T01:17:19.564Z,2.73
2022-12-31T01:19:46.967Z,2.74
2022-12-31T01:22:14.110Z,2.79
2022-12-31T01:24:41.817Z,2.81
2022-12-31T01:27:11.434Z,2.82
2022-12-31T01:29:38.734Z,2.80
2022-12-31T01:32:06.023Z,2.78
2022-12-31T01:34:33.539Z,2.83
2022-12-31T01:37:00.631Z,2.85
2022-12-31T01:39:27.916Z,2.87
2022-12-31T01:41:58.410Z,2.86
2022-12-31T01:44:25.904Z,2.87
2022-12-31T01:46:56.801Z,2.88
2022-12-31T01:49:49.859Z,2.92
2022-12-31T01:52:29.221Z,3.00
2022-12-31T01:55:15.105Z,2.96
2022-12-31T01:57:47.060Z,3.01
2022-12-31T02:00:14.836Z,3.03
2022-12-31T02:02:44.482Z,3.05
2022-12-31T02:05:44.593Z,3.07
2022-12-31T02:08:12.375Z,3.07
2022-12-31T02:10:39.948Z,3.09
2022-12-31T02:13:11.035Z,3.08
2022-12-31T02:15:44.253Z,3.11
2022-12-31T02:18:23.286Z,3.12
2022-12-31T02:21:05.792Z,3.11
2022-12-31T02:24:04.129Z,3.13
2022-12-31T02:26:58.981Z,3.19
2022-12-31T02:29:47.271Z,3.23
2022-12-31T02:32:50.121Z,3.22
2022-12-31T02:35:25.160Z,3.24
2022-12-31T02:38:01.244Z,3.25
2022-12-31T02:40:28.953Z,3.30
2022-12-31T02:42:56.320Z,3.31
2022-12-31T02:45:30.567Z,3.29
2022-12-31T02:48:19.591Z,3.30
2022-12-31T02:51:19.532Z,3.34
2022-12-31T02:54:02.047Z,3.34
2022-12-31T02:56:36.475Z,3.37
2022-12-31T02:59:40.577Z,3.37
2022-12-31T03:02:15.997Z,3.40
2022-12-31T03:04:48.872Z,3.41
2022-12-31T03:07:23.813Z,3.45
2022-12-31T03:09:51.582Z,3.38
2022-12-31T03:12:42.073Z,3.42
2022-12-31T03:15:20.284Z,3.40
2022-12-31T03:18:16.520Z,3.43
2022-12-31T03:21:10.063Z,3.47
2022-12-31T03:23:50.292Z,3.46
2022-12-31T03:26:18.054Z,3.50
2022-12-31T03:28:47.840Z,3.46
2022-12-31T03:31:16.464Z,3.49
2022-12-31T03:33:43.886Z,3.50
2022-12-31T03:36:14.102Z,3.44
2022-12-31T03:38:41.581Z,3.51
2022-12-31T03:41:11.142Z,3.53
2022-12-31T03:43:38.310Z,3.48
2022-12-31T03:46:05.986Z,3.49
2022-12-31T03:48:33.279Z,3.48
2022-12-31T03:51:03.209Z,3.53
2022-12-31T03:53:30.403Z,3.52
2022-12-31T03:55:57.830Z,3.53
2022-12-31T03:58:24.929Z,3.54
2022-12-31T04:00:52.524Z,3.53
2022-12-31T04:03:19.725Z,3.52
2022-12-31T04:05:53.971Z,3.48
2022-12-31T04:08:21.152Z,3.47
2022-12-31T04:10:48.593Z,3.50
2022-12-31T04:13:15.943Z,3.54
2022-12-31T04:15:45.819Z,3.56
2022-12-31T04:18:13.395Z,3.54
2022-12-31T04:20:40.663Z,3.57
2022-12-31T04:23:07.827Z,3.54
2022-12-31T04:25:35.109Z,3.47
2022-12-31T04:28:02.161Z,3.46
2022-12-31T04:30:29.635Z,3.42
2022-12-31T04:32:56.583Z,3.41
2022-12-31T04:35:23.934Z,3.34
2022-12-31T04:37:51.180Z,3.34
2022-12-31T04:40:18.716Z,3.35
2022-12-31T04:42:45.767Z,3.34
2022-12-31T04:45:13.032Z,3.38
2022-12-31T04:47:40.223Z,3.36
2022-12-31T04:50:09.938Z,3.37
2022-12-31T04:52:42.489Z,3.41
2022-12-31T04:55:11.418Z,3.37
2022-12-31T04:57:38.582Z,3.31
2022-12-31T05:00:06.667Z,3.30
2022-12-31T05:02:33.924Z,3.30
2022-12-31T05:05:01.408Z,3.29
2022-12-31T05:07:28.516Z,3.26
2022-12-31T05:09:58.145Z,3.33
2022-12-31T05:12:25.249Z,3.28
2022-12-31T05:14:54.784Z,3.30
2022-12-31T05:17:24.477Z,3.35
2022-12-31T05:19:51.747Z,3.37
2022-12-31T05:22:34.133Z,3.37
2022-12-31T05:25:01.556Z,3.45
2022-12-31T05:27:31.413Z,3.40
2022-12-31T05:29:59.482Z,3.39
2022-12-31T05:32:26.665Z,3.42
2022-12-31T05:34:57.838Z,3.42
2022-12-31T05:37:29.300Z,3.47
2022-12-31T05:39:57.092Z,3.46
2022-12-31T05:42:26.839Z,3.45
2022-12-31T05:44:54.248Z,3.49
2022-12-31T05:47:21.682Z,3.52
2022-12-31T05:49:49.055Z,3.49
2022-12-31T05:52:16.023Z,3.55
2022-12-31T05:54:43.754Z,3.57
2022-12-31T05:57:13.498Z,3.57
2022-12-31T05:59:41.071Z,3.51
2022-12-31T06:02:08.223Z,3.47
2022-12-31T06:04:35.580Z,3.50
2022-12-31T06:07:05.082Z,3.51
2022-12-31T06:09:32.504Z,3.53
2022-12-31T06:12:01.820Z,3.59
2022-12-31T06:14:29.543Z,3.59
2022-12-31T06:16:56.481Z,3.58
2022-12-31T06:19:24.146Z,3.56
2022-12-31T06:21:51.539Z,3.61
2022-12-31T06:24:19.104Z,3.59
2022-12-31T06:26:46.128Z,3.62
2022-12-31T06:29:13.828Z,3.58
2022-12-31T06:31:40.976Z,3.58
2022-12-31T06:34:08.262Z,3.57
2022-12-31T06:36:35.263Z,3.56
2022-12-31T06:39:07.285Z,3.60
2022-12-31T06:41:34.253Z,3.55
2022-12-31T06:44:04.550Z,3.53
2022-12-31T06:46:33.747Z,3.48
2022-12-31T06:49:01.238Z,3.45
2022-12-31T06:51:28.353Z,3.44
2022-12-31T06:53:55.762Z,3.46
2022-12-31T06:56:33.112Z,3.48
2022-12-31T06:59:01.836Z,3.51
2022-12-31T07:01:40.185Z,3.51
2022-12-31T07:04:13.848Z,3.51
2022-12-31T07:06:48.306Z,3.59
2022-12-31T07:09:48.732Z,3.67
2022-12-31T07:12:33.984Z,3.65
2022-12-31T07:15:33.228Z,3.66
2022-12-31T07:18:18.442Z,3.67
2022-12-31T07:20:46.131Z,3.73
2022-12-31T07:23:13.653Z,3.75
2022-12-31T07:25:49.123Z,3.77
2022-12-31T07:28:42.680Z,3.87
2022-12-31T07:31:22.422Z,3.96
2022-12-31T07:34:31.841Z,4.06
2022-12-31T07:37:25.169Z,4.12
2022-12-31T07:40:18.860Z,4.13
2022-12-31T07:43:04.539Z,4.14
2022-12-31T07:45:53.148Z,4.18
2022-12-31T07:48:28.032Z,4.22
2022-12-31T07:50:57.331Z,4.25
2022-12-31T07:53:27.051Z,4.22
2022-12-31T07:56:00.564Z,4.25
2022-12-31T07:58:40.593Z,4.35
2022-12-31T08:01:12.001Z,4.46
2022-12-31T08:03:57.746Z,4.60
2022-12-31T08:06:47.745Z,4.73
2022-12-31T08:09:27.182Z,4.94
2022-12-31T08:12:00.314Z,5.05
2022-12-31T08:14:29.069Z,5.19
2022-12-31T08:16:57.710Z,5.26
2022-12-31T08:19:30.610Z,5.30
2022-12-31T08:21:57.700Z,5.28
2022-12-31T08:24:48.041Z,5.31
2022-12-31T08:27:32.312Z,5.31
2022-12-31T08:30:17.904Z,5.35
2022-12-31T08:32:51.051Z,5.52
2022-12-31T08:35:25.876Z,5.75
2022-12-31T08:38:09.923Z,5.87
2022-12-31T08:40:58.206Z,6.05
2022-12-31T08:43:26.153Z,6.14
2022-12-31T08:45:54.217Z,6.22
2022-12-31T08:48:33.594Z,6.26
2022-12-31T08:51:01.207Z,6.19
2022-12-31T08:53:28.616Z,6.21
2022-12-31T08:56:12.178Z,6.15
2022-12-31T08:59:29.592Z,6.37
2022-12-31T09:02:22.803Z,6.50
2022-12-31T09:05:08.689Z,6.41
2022-12-31T09:07:39.624Z,6.25
2022-12-31T09:10:31.856Z,6.23
2022-12-31T09:13:17.615Z,6.11
2022-12-31T09:16:09.334Z,6.06
2022-12-31T09:18:42.876Z,5.91
2022-12-31T09:21:14.059Z,5.98
2022-12-31T09:23:45.048Z,6.10
2022-12-31T09:26:39.751Z,6.12
2022-12-31T09:29:26.002Z,6.13
2022-12-31T09:32:25.539Z,6.10
2022-12-31T09:35:14.517Z,6.06
2022-12-31T09:39:18.982Z,6.14
2022-12-31T09:41:52.388Z,6.30
2022-12-31T09:44:43.001Z,6.28
2022-12-31T09:47:30.650Z,6.30
2022-12-31T09:50:49.077Z,6.41
2022-12-31T09:53:16.688Z,6.50
2022-12-31T09:55:57.163Z,6.59
2022-12-31T09:58:32.700Z,6.63
2022-12-31T10:01:21.682Z,6.67
2022-12-31T10:14:02.244Z,6.70
2022-12-31T10:16:42.127Z,6.75
2022-12-31T10:19:30.496Z,6.80
2022-12-31T10:22:25.415Z,6.78
2022-12-31T10:25:38.967Z,6.75
2022-12-31T10:28:34.607Z,6.82
2022-12-31T10:31:06.918Z,6.91
2022-12-31T10:33:43.945Z,6.89
2022-12-31T10:36:13.891Z,6.92
2022-12-31T10:38:41.189Z,6.89
2022-12-31T10:41:31.406Z,6.86
2022-12-31T10:44:01.797Z,6.89
2022-12-31T10:46:53.710Z,6.90
2022-12-31T10:49:52.428Z,6.91
2022-12-31T10:52:28.490Z,6.87
2022-12-31T10:55:04.547Z,6.92
2022-12-31T10:57:34.748Z,6.93
2022-12-31T11:00:10.498Z,6.96
2022-12-31T11:02:42.964Z,7.04
2022-12-31T11:05:47.104Z,7.14
2022-12-31T11:08:25.926Z,7.21
2022-12-31T11:11:11.624Z,7.27
2022-12-31T11:13:47.871Z,7.23
2022-12-31T11:16:26.858Z,7.29
2022-12-31T11:19:12.731Z,7.38
2022-12-31T11:22:13.598Z,7.36
2022-12-31T11:25:07.874Z,7.35
2022-12-31T11:27:49.300Z,7.37
2022-12-31T11:30:48.790Z,7.39
2022-12-31T11:33:52.858Z,7.38
2022-12-31T11:36:56.538Z,7.45
2022-12-31T11:40:01.041Z,7.50
2022-12-31T11:42:52.195Z,7.45
2022-12-31T11:45:34.095Z,7.48
2022-12-31T11:48:33.675Z,7.43
2022-12-31T11:51:07.291Z,7.37
2022-12-31T11:54:03.839Z,7.39
2022-12-31T11:56:38.873Z,7.48
2022-12-31T11:59:19.216Z,7.48
2022-12-31T12:01:59.261Z,7.47
2022-12-31T12:04:26.670Z,7.48
2022-12-31T12:06:54.230Z,7.52
2022-12-31T12:09:31.138Z,7.56
2022-12-31T12:12:04.680Z,7.60
2022-12-31T12:14:42.061Z,7.62
2022-12-31T12:17:31.935Z,7.74
2022-12-31T12:20:10.961Z,7.76
2022-12-31T12:22:49.886Z,7.84
2022-12-31T12:25:27.990Z,7.83
2022-12-31T12:27:55.506Z,7.78
2022-12-31T12:30:27.843Z,7.67
2022-12-31T12:33:00.704Z,7.64
2022-12-31T12:35:33.280Z,7.62
2022-12-31T12:38:00.701Z,7.53
2022-12-31T12:40:33.902Z,7.44
2022-12-31T12:43:03.088Z,7.34
2022-12-31T12:45:59.108Z,7.36
2022-12-31T12:48:36.049Z,7.31
2022-12-31T12:51:26.581Z,7.32
2022-12-31T12:53:54.461Z,7.32
2022-12-31T12:56:38.964Z,7.31
2022-12-31T12:59:24.576Z,7.30
2022-12-31T13:02:13.004Z,7.32
2022-12-31T13:04:49.372Z,7.36
2022-12-31T13:07:31.427Z,7.39
2022-12-31T13:10:24.994Z,7.42
2022-12-31T13:15:56.958Z,7.50
2022-12-31T13:18:51.587Z,7.53
2022-12-31T13:21:28.995Z,7.61
2022-12-31T13:24:19.676Z,7.68
2022-12-31T13:26:53.175Z,7.75
2022-12-31T13:29:26.365Z,7.72
2022-12-31T13:32:01.044Z,7.73
2022-12-31T13:34:39.167Z,7.73
2022-12-31T13:37:18.388Z,7.72
2022-12-31T13:39:47.274Z,7.77
2022-12-31T13:42:31.729Z,7.76
2022-12-31T13:45:06.350Z,7.73
2022-12-31T13:47:43.785Z,7.74
2022-12-31T13:50:39.102Z,7.70
2022-12-31T13:53:30.549Z,7.68
2022-12-31T13:56:03.642Z,7.64
2022-12-31T13:58:46.964Z,7.60
2022-12-31T14:01:34.704Z,7.52
2022-12-31T14:04:05.240Z,7.45
2022-12-31T14:06:49.781Z,7.40
2022-12-31T14:09:22.668Z,7.35
2022-12-31T14:11:59.554Z,7.33
2022-12-31T14:14:42.558Z,7.29
2022-12-31T14:17:36.552Z,7.24
2022-12-31T14:20:20.830Z,7.16
2022-12-31T14:23:03.379Z,7.07
2022-12-31T14:26:04.327Z,7.07
2022-12-31T14:28:46.832Z,7.10
2022-12-31T14:31:26.829Z,7.06
2022-12-31T14:34:18.269Z,7.00
2022-12-31T14:37:42.232Z,6.93
2022-12-31T14:40:15.219Z,6.90
2022-12-31T14:43:01.259Z,6.86
2022-12-31T14:46:04.273Z,6.86
2022-12-31T14:49:06.586Z,6.83
2022-12-31T14:51:37.266Z,6.79
2022-12-31T14:54:05.303Z,6.70
2022-12-31T14:56:42.783Z,6.62
2022-12-31T14:59:25.306Z,6.56
2022-12-31T15:01:53.397Z,6.56
2022-12-31T15:04:33.114Z,6.51
2022-12-31T15:07:16.688Z,6.49
2022-12-31T15:10:02.890Z,6.43
2022-12-31T15:12:39.139Z,6.36
2022-12-31T15:15:18.842Z,6.41
2022-12-31T15:17:56.616Z,6.36
2022-12-31T15:20:39.189Z,6.30
2022-12-31T15:23:19.843Z,6.25
2022-12-31T15:25:52.338Z,6.36
2022-12-31T15:28:33.780Z,6.37
2022-12-31T15:31:19.611Z,6.43
2022-12-31T15:34:23.716Z,6.44
2022-12-31T15:37:00.103Z,6.43
2022-12-31T15:39:36.895Z,6.31
2022-12-31T15:45:00.118Z,6.28
2022-12-31T15:47:41.029Z,6.34
2022-12-31T15:50:16.935Z,6.36
2022-12-31T15:53:03.225Z,6.32
2022-12-31T15:55:37.800Z,6.27
2022-12-31T15:58:12.371Z,6.31
2022-12-31T16:01:03.763Z,6.38
2022-12-31T16:03:32.388Z,6.43
2022-12-31T16:06:20.459Z,6.35
2022-12-31T16:08:49.824Z,6.33
2022-12-31T16:11:19.127Z,6.37
2022-12-31T16:13:50.832Z,6.37
2022-12-31T16:16:32.232Z,6.37
2022-12-31T16:19:01.164Z,6.37
2022-12-31T16:21:38.918Z,6.32
2022-12-31T16:24:26.212Z,6.18
2022-12-31T16:26:56.139Z,6.17
2022-12-31T16:29:24.427Z,6.16
2022-12-31T16:31:58.243Z,6.22
2022-12-31T16:34:27.957Z,6.25
2022-12-31T16:36:57.101Z,6.19
2022-12-31T16:39:24.771Z,6.11
2022-12-31T16:42:07.059Z,6.02
2022-12-31T16:44:34.501Z,5.95
2022-12-31T16:47:03.578Z,5.94
2022-12-31T16:49:33.028Z,5.91
2022-12-31T16:52:07.974Z,5.99
2022-12-31T16:54:43.462Z,5.93
2022-12-31T16:57:20.291Z,5.90
2022-12-31T16:59:52.732Z,5.80
2022-12-31T17:02:25.438Z,5.87
2022-12-31T17:04:56.377Z,5.77
2022-12-31T17:07:42.633Z,5.71
2022-12-31T17:10:09.936Z,5.60
2022-12-31T17:13:28.331Z,5.78
2022-12-31T17:15:57.960Z,5.72
2022-12-31T17:18:31.268Z,5.61
2022-12-31T17:21:10.377Z,5.54
2022-12-31T17:23:39.961Z,5.44
2022-12-31T17:26:13.714Z,5.56
2022-12-31T17:28:47.598Z,5.57
2022-12-31T17:31:57.315Z,5.66
2022-12-31T17:34:31.063Z,5.55
2022-12-31T17:37:18.483Z,5.42
2022-12-31T17:39:51.397Z,5.39
2022-12-31T17:42:42.909Z,5.43
2022-12-31T17:45:22.258Z,5.37
2022-12-31T17:47:53.804Z,5.29
2022-12-31T17:50:24.744Z,5.26
2022-12-31T17:53:12.799Z,5.10
2022-12-31T17:55:45.558Z,5.10
2022-12-31T17:58:24.742Z,5.03
2022-12-31T18:00:57.798Z,5.05
2022-12-31T18:03:28.041Z,4.98
2022-12-31T18:05:55.365Z,4.93
2022-12-31T18:08:22.802Z,4.99
2022-12-31T18:10:52.584Z,4.92
2022-12-31T18:13:23.556Z,4.91
2022-12-31T18:15:51.582Z,4.95
2022-12-31T18:18:25.551Z,4.99
2022-12-31T18:21:02.791Z,5.10
2022-12-31T18:23:46.083Z,4.95
2022-12-31T18:26:16.167Z,4.89
2022-12-31T18:28:44.158Z,4.76
2022-12-31T18:31:30.588Z,4.68
2022-12-31T18:33:59.685Z,4.57
2022-12-31T18:36:28.238Z,4.70
2022-12-31T18:38:55.941Z,4.75
2022-12-31T18:41:27.038Z,4.71
2022-12-31T18:43:55.405Z,4.74
2022-12-31T18:46:25.405Z,4.68
2022-12-31T18:48:53.008Z,4.60
2022-12-31T18:51:29.273Z,4.57
2022-12-31T18:54:00.589Z,4.51
2022-12-31T18:56:31.431Z,4.49
2022-12-31T18:58:59.922Z,4.51
2022-12-31T19:01:29.555Z,4.55
2022-12-31T19:04:00.733Z,4.49
2022-12-31T19:06:30.689Z,4.49
2022-12-31T19:09:00.846Z,4.45
2022-12-31T19:11:28.323Z,4.39
2022-12-31T19:13:55.675Z,4.37
2022-12-31T19:16:22.729Z,4.55
2022-12-31T19:18:50.912Z,4.51
2022-12-31T19:21:23.080Z,4.51
2022-12-31T19:23:52.052Z,4.92
2022-12-31T19:26:21.883Z,4.88
2022-12-31T19:28:51.037Z,4.74
2022-12-31T19:31:21.769Z,4.80
2022-12-31T19:33:49.248Z,4.78
2022-12-31T19:36:20.438Z,4.76
2022-12-31T19:38:47.814Z,4.70
2022-12-31T19:41:20.280Z,4.70
2022-12-31T19:43:48.196Z,4.71
2022-12-31T19:46:17.560Z,4.64
2022-12-31T19:48:45.770Z,4.59
2022-12-31T19:51:17.610Z,4.65
2022-12-31T19:53:46.108Z,4.53
2022-12-31T19:56:15.489Z,4.47
2022-12-31T19:58:43.632Z,4.49
2022-12-31T20:01:22.940Z,4.31
2022-12-31T20:03:51.595Z,4.23
2022-12-31T20:06:19.667Z,4.12
2022-12-31T20:08:47.015Z,4.17
2022-12-31T20:11:17.486Z,4.29
2022-12-31T20:13:46.471Z,4.43
2022-12-31T20:16:17.209Z,4.34
2022-12-31T20:18:46.588Z,4.17
2022-12-31T20:21:19.930Z,4.07
2022-12-31T20:23:49.466Z,3.94
2022-12-31T20:26:20.186Z,3.84
2022-12-31T20:28:48.225Z,3.81
2022-12-31T20:31:18.800Z,3.91
2022-12-31T20:33:46.426Z,3.85
2022-12-31T20:36:15.541Z,3.78
2022-12-31T20:38:43.419Z,3.77
2022-12-31T20:41:13.832Z,3.83
2022-12-31T20:43:41.949Z,3.76
2022-12-31T20:46:21.369Z,3.74
2022-12-31T20:48:53.963Z,3.66
2022-12-31T20:51:22.263Z,3.59
2022-12-31T20:53:52.264Z,3.50
2022-12-31T20:56:19.401Z,3.53
2022-12-31T20:58:49.459Z,3.71
2022-12-31T21:01:17.548Z,3.81
2022-12-31T21:06:35.719Z,3.82
2022-12-31T21:09:06.891Z,3.66
2022-12-31T21:11:55.091Z,3.55
2022-12-31T21:14:22.490Z,3.51
2022-12-31T21:16:49.711Z,3.50
2022-12-31T21:19:17.308Z,3.44
2022-12-31T21:21:48.398Z,3.36
2022-12-31T21:24:21.813Z,3.35
2022-12-31T21:26:51.160Z,3.43
2022-12-31T21:29:19.327Z,3.45
2022-12-31T21:31:46.464Z,3.38
2022-12-31T21:34:13.874Z,3.29
2022-12-31T21:36:43.376Z,3.20
2022-12-31T21:39:10.715Z,3.15
2022-12-31T21:41:52.989Z,3.16
2022-12-31T21:44:26.773Z,3.21
2022-12-31T21:47:34.944Z,3.15
2022-12-31T21:50:04.015Z,3.15
2022-12-31T21:52:33.529Z,3.09
2022-12-31T21:55:21.812Z,3.05
2022-12-31T22:00:56.803Z,3.09
2022-12-31T22:03:31.781Z,3.10
2022-12-31T22:06:05.867Z,3.07
2022-12-31T22:08:32.910Z,3.08
2022-12-31T22:11:00.329Z,3.05
2022-12-31T22:13:27.945Z,3.04
2022-12-31T22:16:04.234Z,3.20
2022-12-31T22:18:35.112Z,3.24
2022-12-31T22:21:02.469Z,3.23
2022-12-31T22:23:31.333Z,3.19
2022-12-31T22:26:01.037Z,3.14
2022-12-31T22:28:40.508Z,3.17
2022-12-31T22:31:22.886Z,3.10
2022-12-31T22:33:50.479Z,3.06
2022-12-31T22:36:20.850Z,3.24
2022-12-31T22:38:49.598Z,3.45
2022-12-31T22:41:19.577Z,3.50
2022-12-31T22:43:58.625Z,3.49
2022-12-31T22:46:30.289Z,3.51
2022-12-31T22:48:59.140Z,3.46
2022-12-31T22:51:54.922Z,3.37
2022-12-31T22:54:14.816Z,3.55
2022-12-31T22:56:42.550Z,3.51
2022-12-31T22:59:09.744Z,3.54
2022-12-31T23:01:39.680Z,3.58
2022-12-31T23:04:06.970Z,3.64
2022-12-31T23:06:43.407Z,3.63
2022-12-31T23:09:30.511Z,3.67
2022-12-31T23:11:57.944Z,3.81
2022-12-31T23:14:43.488Z,3.70
2022-12-31T23:17:39.759Z,3.55
2022-12-31T23:20:30.889Z,3.43
2022-12-31T23:23:10.134Z,3.32
2022-12-31T23:25:44.829Z,3.21
2022-12-31T23:28:25.394Z,3.16
2022-12-31T23:30:52.828Z,3.31
2022-12-31T23:33:25.793Z,3.20
2022-12-31T23:36:06.344Z,3.36
2022-12-31T23:38:33.919Z,3.40
2022-12-31T23:41:01.001Z,3.29
2022-12-31T23:43:28.535Z,3.16
2022-12-31T23:45:55.521Z,3.06
2022-12-31T23:48:22.854Z,2.99
2022-12-31T23:50:53.754Z,2.92
2022-12-31T23:53:23.347Z,2.80
2022-12-31T23:55:54.171Z,2.73
2022-12-31T23:58:22.523Z,2.82
